Stow, Ohio
Current Conditions -  °F | °C
As of 7:54 PM on Friday 28 Nov 2014 (Local Time) from KAKR Reporting Station
Overcast Overcast  
Wind Chill: 20°   Ceiling: 9000
Heat Index: 28°   Visibility: 10mi
Dew Point: 19°   Wind: 8mph
Humidity: 69%   Direction: 190°S
Pressure: 30.17"   Gusts: NA
Location:  41.17°N, 81.44°W
Report Text: KAKR 290054Z AUTO 19007KT 10SM FEW028 OVC090 M02/M07 A3017 RMK AO2 SNE04 SLP232 P0000 T10221072 $
Loading
Personal Weather Stations






























Interactive Weather Map New forecast layout! Learn more

10-Day Weather Forecast

Advertisements
Track Severe Weather on mobile